Time;durP1;ratioP1;P1;durP2;ratioP2;P2;SDS_P1;SDS_P2;PMS_P1;PMS_P2;Temp;Humidity;BMP_temperature;BMP_pressure;BME280_temperature;BME280_humidity;BME280_pressure;Samples;Min_cycle;Max_cycle;Signal;HPM_P1;HPM_P2
2022/08/10 00:01:48;;;;;;;1.00;1.00;;;23.20;63.90;;;;;;6212816;22;43741;-62
2022/08/10 00:04:19;;;;;;;;;;;23.20;63.90;;;;;;6212689;22;43274;-61
2022/08/10 00:06:52;;;;;;;0.60;0.60;;;23.10;63.90;;;;;;6213157;22;43311;-62
2022/08/10 00:09:21;;;;;;;0.70;0.70;;;23.10;64.00;;;;;;6213046;22;43399;-61
2022/08/10 00:11:49;;;;;;;0.60;0.60;;;23.10;64.60;;;;;;6212372;22;44927;-61
2022/08/10 00:14:17;;;;;;;0.63;0.63;;;23.10;63.90;;;;;;6212862;22;43979;-63
2022/08/10 00:16:44;;;;;;;0.70;0.70;;;23.10;63.90;;;;;;6212945;22;43281;-61
2022/08/10 00:19:12;;;;;;;0.82;0.82;;;23.10;63.90;;;;;;6212490;22;43267;-61
2022/08/10 00:21:44;;;;;;;0.82;0.60;;;23.10;63.90;;;;;;6212934;22;44710;-63
2022/08/10 00:24:11;;;;;;;0.60;0.60;;;23.10;63.90;;;;;;6212605;22;43645;-61
2022/08/10 00:26:39;;;;;;;0.80;0.80;;;23.10;63.90;;;;;;6212625;22;43405;-61
2022/08/10 00:29:27;;;;;;;0.63;0.63;;;23.10;63.90;;;;;;6185845;22;43325;-61
2022/08/10 00:31:54;;;;;;;0.70;0.70;;;23.10;63.90;;;;;;6212545;22;43895;-63
2022/08/10 00:34:32;;;;;;;0.52;0.52;;;23.10;63.90;;;;;;6212787;22;43332;-61
2022/08/10 00:37:00;;;;;;;0.60;0.60;;;23.10;63.90;;;;;;6213105;22;43244;-61
2022/08/10 00:39:28;;;;;;;0.60;0.60;;;23.10;63.90;;;;;;6212735;22;43364;-61
2022/08/10 00:42:00;;;;;;;0.70;0.70;;;23.10;63.90;;;;;;6213183;22;43872;-61
2022/08/10 00:44:37;;;;;;;0.57;0.57;;;23.00;63.90;;;;;;6212484;22;43193;-62
2022/08/10 00:47:05;;;;;;;;;;;23.10;63.90;;;;;;6212985;22;43246;-62
2022/08/10 00:49:42;;;;;;;1.08;0.77;;;23.00;63.90;;;;;;6212733;22;43230;-61
2022/08/10 00:52:12;;;;;;;0.70;0.70;;;23.00;63.90;;;;;;6212469;22;44886;-62
2022/08/10 00:54:42;;;;;;;0.63;0.60;;;23.00;63.90;;;;;;6212227;22;43313;-62
2022/08/10 00:57:10;;;;;;;0.68;0.68;;;23.00;63.90;;;;;;6212762;22;43257;-62
2022/08/10 00:59:45;;;;;;;0.88;0.80;;;23.00;63.90;;;;;;6212611;22;43283;-62
2022/08/10 01:02:27;;;;;;;0.60;0.60;;;23.00;63.90;;;;;;6212656;22;44022;-62
2022/08/10 01:04:56;;;;;;;0.50;0.50;;;23.00;63.80;;;;;;6212733;22;43663;-61
2022/08/10 01:08:01;;;;;;;0.80;0.80;;;23.00;63.90;;;;;;6212438;22;43194;-61
2022/08/10 01:10:56;;;;;;;0.68;0.68;;;23.00;63.90;;;;;;6212674;22;43327;-61
2022/08/10 01:13:36;;;;;;;0.60;0.60;;;23.00;63.90;;;;;;6212425;22;44858;-63
2022/08/10 01:16:31;;;;;;;0.70;0.70;;;22.90;63.90;;;;;;6212697;22;43753;-62
2022/08/10 01:19:40;;;;;;;0.70;0.70;;;22.90;63.80;;;;;;6213136;22;43212;-61
2022/08/10 01:22:11;;;;;;;0.73;0.73;;;22.90;63.90;;;;;;6155500;22;43322;-61
2022/08/10 01:24:50;;;;;;;0.80;0.80;;;22.90;63.90;;;;;;6212285;22;44676;-61
2022/08/10 01:27:39;;;;;;;0.70;0.70;;;22.90;63.90;;;;;;6212478;22;43887;-61
2022/08/10 01:30:27;;;;;;;0.70;0.70;;;22.90;63.90;;;;;;6212609;22;43248;-61
2022/08/10 01:33:05;;;;;;;0.65;0.65;;;22.90;63.90;;;;;;6212950;22;43387;-62
2022/08/10 01:36:01;;;;;;;0.73;0.73;;;22.90;63.90;;;;;;6214667;22;45223;-61
2022/08/10 01:38:35;;;;;;;0.52;0.52;;;22.90;63.90;;;;;;6215941;22;43237;-62
2022/08/10 01:41:11;;;;;;;0.80;0.80;;;22.90;63.90;;;;;;6215690;22;43280;-61
2022/08/10 01:43:42;;;;;;;1.35;0.55;;;22.90;63.90;;;;;;6215559;22;43880;-61
2022/08/10 01:46:13;;;;;;;0.88;0.88;;;22.90;63.90;;;;;;6215482;22;44894;-61
2022/08/10 01:48:50;;;;;;;0.60;0.60;;;22.90;63.90;;;;;;6215788;22;43881;-62
2022/08/10 01:51:41;;;;;;;0.60;0.60;;;22.90;63.90;;;;;;6215976;22;43252;-61
2022/08/10 01:54:14;;;;;;;0.73;0.73;;;22.90;63.90;;;;;;6215738;22;43882;-61
2022/08/10 01:56:44;;;;;;;0.70;0.70;;;22.90;63.90;;;;;;6214808;22;44936;-61
2022/08/10 01:59:37;;;;;;;0.50;0.50;;;22.80;63.90;;;;;;6215759;22;43654;-61
2022/08/10 02:02:08;;;;;;;2.15;1.05;;;22.80;63.80;;;;;;6215630;22;43307;-61
2022/08/10 02:04:39;;;;;;;0.60;0.60;;;22.80;63.90;;;;;;6215220;22;43425;-62
2022/08/10 02:07:12;;;;;;;0.80;0.80;;;22.80;63.90;;;;;;6215708;22;44920;-62
2022/08/10 02:09:46;;;;;;;0.70;0.70;;;22.80;63.90;;;;;;6215536;22;43883;-61
2022/08/10 02:12:17;;;;;;;0.70;0.70;;;22.80;63.90;;;;;;6215803;22;43276;-61
2022/08/10 02:15:00;;;;;;;1.00;1.00;;;22.80;63.90;;;;;;6215814;22;43371;-62
2022/08/10 02:17:35;;;;;;;0.80;0.80;;;22.80;63.90;;;;;;6187553;22;46046;-62
2022/08/10 02:20:27;;;;;;;0.75;0.75;;;22.80;63.90;;;;;;6215608;22;43300;-61
2022/08/10 02:23:18;;;;;;;0.63;0.63;;;22.80;63.90;;;;;;6216196;22;43250;-62
2022/08/10 02:25:46;;;;;;;0.82;0.80;;;22.80;63.90;;;;;;6215018;22;43328;-61
2022/08/10 02:28:19;;;;;;;0.65;0.65;;;22.70;63.90;;;;;;6215008;22;44617;-61
2022/08/10 02:31:04;;;;;;;0.80;0.80;;;22.70;63.90;;;;;;6215361;22;43501;-61
2022/08/10 02:33:34;;;;;;;0.60;0.60;;;22.70;63.90;;;;;;6215839;22;43278;-61
2022/08/10 02:36:06;;;;;;;0.60;0.60;;;22.70;63.90;;;;;;6215299;22;43233;-62
2022/08/10 02:38:41;;;;;;;0.50;0.50;;;22.70;63.90;;;;;;6214842;22;44886;-61
2022/08/10 02:41:56;;;;;;;0.65;0.65;;;22.70;63.90;;;;;;6215371;22;43816;-62
2022/08/10 02:44:55;;;;;;;0.85;0.85;;;22.70;63.90;;;;;;6215597;22;43268;-61
2022/08/10 02:47:59;;;;;;;0.75;0.75;;;22.70;64.00;;;;;;6213947;22;43256;-62
2022/08/10 02:50:30;;;;;;;0.60;0.60;;;22.70;64.00;;;;;;6213387;22;43780;-61
2022/08/10 02:53:12;;;;;;;1.33;0.73;;;22.70;63.90;;;;;;6213959;22;43862;-62
2022/08/10 02:56:07;;;;;;;0.70;0.70;;;22.70;63.90;;;;;;6214304;22;43276;-61
2022/08/10 02:58:41;;;;;;;0.80;0.80;;;22.70;63.90;;;;;;6213912;22;43354;-61
2022/08/10 03:01:13;;;;;;;0.80;0.80;;;22.70;63.90;;;;;;6212941;22;44002;-61
2022/08/10 03:03:48;;;;;;;0.70;0.70;;;22.60;63.90;;;;;;6213558;22;43436;-62
2022/08/10 03:06:22;;;;;;;0.55;0.55;;;22.60;63.90;;;;;;6213206;22;43245;-61
2022/08/10 03:08:50;;;;;;;0.82;0.82;;;22.70;64.00;;;;;;6213674;22;43386;-61
2022/08/10 03:11:29;;;;;;;0.90;0.90;;;22.60;64.00;;;;;;6213105;22;44634;-61
2022/08/10 03:14:18;;;;;;;0.82;0.82;;;22.60;63.90;;;;;;6212612;22;43624;-61
2022/08/10 03:16:49;;;;;;;0.65;0.65;;;22.60;64.00;;;;;;6213361;22;43277;-62
2022/08/10 03:19:19;;;;;;;0.93;0.73;;;22.60;63.90;;;;;;6213213;22;43339;-61
2022/08/10 03:22:08;;;;;;;0.77;0.77;;;22.60;63.90;;;;;;6212767;22;44662;-62
2022/08/10 03:24:36;;;;;;;0.60;0.60;;;22.60;64.00;;;;;;6212686;22;43912;-62
2022/08/10 03:27:04;;;;;;;0.60;0.60;;;22.60;64.00;;;;;;6213168;22;43314;-61
2022/08/10 03:29:32;;;;;;;0.65;0.65;;;22.60;64.00;;;;;;6212802;22;43281;-61
2022/08/10 03:32:23;;;;;;;0.80;0.80;;;22.60;63.90;;;;;;6212637;22;44681;-61
2022/08/10 03:34:52;;;;;;;0.70;0.70;;;22.60;63.90;;;;;;6212537;22;43910;-61
2022/08/10 03:37:20;;;;;;;0.80;0.80;;;22.60;64.00;;;;;;6213252;22;43249;-61
2022/08/10 03:39:49;;;;;;;0.70;0.70;;;22.50;64.00;;;;;;6213314;22;43486;-61
2022/08/10 03:42:21;;;;;;;0.95;0.90;;;22.50;64.00;;;;;;6212368;22;44631;-61
2022/08/10 03:44:51;;;;;;;0.90;0.90;;;22.50;64.00;;;;;;6213255;22;43953;-61
2022/08/10 03:47:20;;;;;;;1.90;0.90;;;22.50;64.00;;;;;;6213023;22;43244;-61
2022/08/10 03:49:49;;;;;;;1.10;0.80;;;22.50;64.00;;;;;;6212826;22;43647;-61
2022/08/10 03:52:18;;;;;;;0.80;0.80;;;22.50;64.00;;;;;;6212907;22;44882;-61
2022/08/10 03:54:46;;;;;;;0.73;0.73;;;22.50;64.00;;;;;;6212850;22;43240;-62
2022/08/10 03:57:13;;;;;;;0.70;0.70;;;22.50;64.00;;;;;;6212208;22;43302;-61
2022/08/10 03:59:41;;;;;;;0.70;0.70;;;22.50;64.00;;;;;;6212988;22;43340;-62
2022/08/10 04:02:09;;;;;;;0.80;0.80;;;22.50;64.00;;;;;;6212948;22;43746;-62
2022/08/10 04:04:56;;;;;;;0.80;0.80;;;22.50;64.00;;;;;;6213236;22;43811;-61
2022/08/10 04:07:24;;;;;;;0.70;0.70;;;22.50;64.00;;;;;;6212721;22;43318;-61
2022/08/10 04:09:52;;;;;;;0.98;0.98;;;22.50;64.00;;;;;;6212333;22;43319;-62
2022/08/10 04:12:24;;;;;;;0.60;0.60;;;22.50;64.00;;;;;;6212398;22;44765;-62
2022/08/10 04:14:52;;;;;;;1.00;1.00;;;22.40;64.00;;;;;;6211909;22;43914;-63
2022/08/10 04:17:22;;;;;;;0.63;0.63;;;22.50;64.00;;;;;;6212520;22;43347;-62
2022/08/10 04:20:16;;;;;;;1.00;0.90;;;22.40;64.00;;;;;;6213473;22;43336;-62
2022/08/10 04:22:48;;;;;;;0.60;0.60;;;22.40;64.00;;;;;;6212993;22;44908;-61
2022/08/10 04:25:16;;;;;;;0.60;0.60;;;22.40;64.10;;;;;;6212720;22;43311;-62
2022/08/10 04:27:45;;;;;;;0.60;0.60;;;22.40;64.10;;;;;;6212738;22;43298;-61
2022/08/10 04:30:13;;;;;;;1.05;0.95;;;22.40;64.10;;;;;;6152914;23;43301;-62
2022/08/10 04:32:42;;;;;;;0.70;0.70;;;22.40;64.10;;;;;;6150673;23;44891;-62
2022/08/10 04:35:10;;;;;;;0.55;0.55;;;22.40;64.10;;;;;;6152297;23;43922;-61
2022/08/10 04:37:40;;;;;;;1.00;1.00;;;22.40;64.10;;;;;;6152314;23;43280;-62
2022/08/10 04:40:16;;;;;;;0.80;0.80;;;22.40;64.10;;;;;;6152806;23;43260;-62
2022/08/10 04:43:02;;;;;;;0.70;0.70;;;22.40;64.10;;;;;;6152717;23;44669;-62
2022/08/10 04:45:40;;;;;;;0.85;0.85;;;22.40;64.10;;;;;;6151875;23;43763;-61
2022/08/10 04:48:20;;;;;;;0.70;0.70;;;22.40;64.10;;;;;;6152585;23;43759;-62
2022/08/10 04:51:11;;;;;;;0.75;0.75;;;22.30;64.10;;;;;;6152557;23;43389;-62
2022/08/10 04:53:46;;;;;;;0.90;0.90;;;22.30;64.10;;;;;;6152079;23;43773;-61
2022/08/10 04:56:35;;;;;;;0.90;0.90;;;22.30;64.10;;;;;;6152156;23;43141;-62
2022/08/10 04:59:04;;;;;;;0.90;0.90;;;22.30;64.10;;;;;;6152728;23;43253;-62
2022/08/10 05:01:32;;;;;;;0.77;0.77;;;22.30;64.10;;;;;;6152715;23;43371;-61
2022/08/10 05:04:19;;;;;;;0.60;0.60;;;22.30;64.10;;;;;;6152132;23;43846;-61
2022/08/10 05:07:06;;;;;;;0.80;0.80;;;22.30;64.10;;;;;;6152002;23;43210;-62
2022/08/10 05:09:34;;;;;;;1.80;0.90;;;22.30;64.20;;;;;;6151788;23;43367;-61
2022/08/10 05:12:22;;;;;;;1.70;0.75;;;22.30;64.20;;;;;;6151391;23;43836;-62
2022/08/10 05:14:50;;;;;;;0.80;0.80;;;22.30;64.10;;;;;;6151846;23;43744;-62
2022/08/10 05:17:21;;;;;;;0.73;0.65;;;22.30;64.20;;;;;;6152251;23;44054;-62
2022/08/10 05:19:48;;;;;;;0.80;0.80;;;22.20;64.10;;;;;;6151967;23;43296;-61
2022/08/10 05:22:34;;;;;;;0.70;0.70;;;22.30;64.20;;;;;;6152428;23;43311;-61
2022/08/10 05:25:03;;;;;;;0.97;0.97;;;22.30;64.20;;;;;;6152452;23;45027;-62
2022/08/10 05:27:31;;;;;;;0.75;0.75;;;22.30;64.20;;;;;;6151755;23;43233;-61
2022/08/10 05:29:58;;;;;;;0.90;0.90;;;22.30;64.20;;;;;;6208358;22;43286;-61
2022/08/10 05:32:30;;;;;;;0.80;0.80;;;22.30;64.20;;;;;;6212629;22;43348;-61
2022/08/10 05:35:19;;;;;;;0.82;0.80;;;22.30;64.20;;;;;;6212135;22;43791;-61
2022/08/10 05:37:49;;;;;;;0.90;0.90;;;22.20;64.20;;;;;;6211961;22;43581;-62
2022/08/10 05:40:38;;;;;;;0.85;0.80;;;22.20;64.20;;;;;;6212485;22;43270;-62
2022/08/10 05:43:06;;;;;;;0.95;0.77;;;22.30;64.30;;;;;;6212336;22;43275;-62
2022/08/10 05:45:34;;;;;;;0.85;0.85;;;22.20;64.20;;;;;;6212139;22;44639;-62
2022/08/10 05:48:22;;;;;;;0.93;0.93;;;22.30;64.20;;;;;;6211649;22;43898;-61
2022/08/10 05:51:09;;;;;;;0.70;0.70;;;22.20;64.20;;;;;;6212439;22;43209;-62
2022/08/10 05:53:37;;;;;;;0.80;0.80;;;22.20;64.20;;;;;;6212355;22;43259;-61
2022/08/10 05:56:25;;;;;;;0.80;0.80;;;22.20;64.20;;;;;;6211647;22;45103;-62
2022/08/10 05:59:15;;;;;;;1.20;0.82;;;22.20;64.20;;;;;;6211866;22;43971;-60
2022/08/10 06:02:04;;;;;;;0.70;0.70;;;22.20;64.30;;;;;;6211827;22;43642;-61
2022/08/10 06:04:52;;;;;;;0.70;0.70;;;22.20;64.30;;;;;;6212226;22;43273;-61
2022/08/10 06:07:21;;;;;;;0.80;0.80;;;22.20;64.30;;;;;;6211510;22;44905;-62
2022/08/10 06:09:50;;;;;;;0.85;0.85;;;22.20;64.30;;;;;;6211362;22;43312;-61
2022/08/10 06:12:27;;;;;;;0.77;0.77;;;22.20;64.30;;;;;;6212303;22;43268;-61
2022/08/10 06:15:15;;;;;;;0.90;0.90;;;22.20;64.30;;;;;;6212493;22;43281;-61
2022/08/10 06:18:04;;;;;;;0.70;0.70;;;22.20;64.30;;;;;;6211280;22;44972;-61
2022/08/10 06:20:32;;;;;;;1.08;0.90;;;22.10;64.20;;;;;;6212256;22;43916;-61
2022/08/10 06:23:03;;;;;;;0.65;0.65;;;22.20;64.30;;;;;;6213601;22;43293;-62
2022/08/10 06:25:31;;;;;;;0.60;0.60;;;22.20;64.30;;;;;;6212200;22;43451;-61
2022/08/10 06:28:21;;;;;;;1.45;0.85;;;22.20;64.30;;;;;;6212525;22;44661;-61
2022/08/10 06:30:51;;;;;;;0.68;0.68;;;22.10;64.30;;;;;;6212721;22;43870;-62
2022/08/10 06:33:22;;;;;;;0.63;0.63;;;22.20;64.30;;;;;;6213817;22;43368;-61
2022/08/10 06:35:51;;;;;;;;;;;22.20;64.40;;;;;;6213859;22;43254;-61
2022/08/10 06:38:22;;;;;;;0.85;0.85;;;22.20;64.30;;;;;;6212438;22;43979;-62
2022/08/10 06:40:55;;;;;;;1.27;0.70;;;22.10;64.30;;;;;;6213455;22;43621;-61
2022/08/10 06:43:24;;;;;;;1.67;0.93;;;22.10;64.30;;;;;;6213767;22;43261;-62
2022/08/10 06:45:59;;;;;;;0.82;0.82;;;22.20;64.40;;;;;;6213007;22;43625;-62
2022/08/10 06:48:51;;;;;;;0.80;0.80;;;22.20;64.40;;;;;;6212997;22;44666;-61
2022/08/10 06:51:29;;;;;;;0.90;0.90;;;22.20;64.40;;;;;;6212910;22;43284;-61
2022/08/10 06:54:00;;;;;;;0.75;0.70;;;22.20;64.30;;;;;;6214110;22;43188;-62
2022/08/10 06:56:32;;;;;;;0.77;0.77;;;22.20;64.40;;;;;;6213036;22;43360;-62
2022/08/10 06:59:33;;;;;;;0.70;0.70;;;22.20;64.40;;;;;;6212729;22;44735;-61
2022/08/10 07:02:06;;;;;;;0.90;0.90;;;22.20;64.30;;;;;;6195707;22;43196;-61
2022/08/10 07:04:40;;;;;;;0.90;0.90;;;22.20;64.40;;;;;;6213653;22;43252;-61
2022/08/10 07:07:13;;;;;;;1.15;0.85;;;22.30;64.40;;;;;;6212509;22;43391;-62
2022/08/10 07:09:43;;;;;;;0.80;0.80;;;22.20;64.40;;;;;;6212850;22;44650;-61
2022/08/10 07:12:12;;;;;;;0.80;0.80;;;22.20;64.40;;;;;;6213217;22;43941;-62
2022/08/10 07:14:43;;;;;;;0.75;0.73;;;22.20;64.30;;;;;;6213381;22;43191;-62
2022/08/10 07:17:17;;;;;;;1.13;1.02;;;22.20;64.30;;;;;;6213005;22;43379;-62
2022/08/10 07:19:48;;;;;;;1.52;0.75;;;22.30;64.30;;;;;;6212621;22;44849;-62
2022/08/10 07:22:27;;;;;;;1.30;0.70;;;22.30;64.40;;;;;;6213292;22;43695;-62
2022/08/10 07:25:18;;;;;;;1.48;0.73;;;22.20;64.30;;;;;;6213270;22;43324;-62
2022/08/10 07:27:47;;;;;;;1.00;1.00;;;22.30;64.50;;;;;;6212710;22;43427;-61
2022/08/10 07:30:35;;;;;;;0.75;0.75;;;22.20;64.50;;;;;;6212590;22;44895;-62
2022/08/10 07:33:04;;;;;;;0.80;0.80;;;22.20;64.50;;;;;;6213340;22;43952;-62
2022/08/10 07:35:34;;;;;;;0.90;0.90;;;22.20;64.50;;;;;;6212777;22;43209;-62
2022/08/10 07:38:27;;;;;;;0.82;0.73;;;22.20;64.50;;;;;;6213121;22;43270;-62
2022/08/10 07:40:59;;;;;;;0.80;0.80;;;22.20;64.50;;;;;;6212930;22;45175;-62
2022/08/10 07:43:30;;;;;;;0.95;0.85;;;22.30;64.50;;;;;;6213294;22;43898;-62
2022/08/10 07:45:58;;;;;;;0.73;0.73;;;22.20;64.40;;;;;;6213796;22;43244;-62
2022/08/10 07:48:29;;;;;;;0.88;0.88;;;22.20;64.50;;;;;;6212718;22;43400;-62
2022/08/10 07:51:00;;;;;;;0.90;0.90;;;22.20;64.40;;;;;;6213305;22;43766;-62
2022/08/10 07:53:30;;;;;;;;;;;22.30;64.50;;;;;;6213818;22;43220;-62
2022/08/10 07:55:59;;;;;;;0.70;0.70;;;22.20;64.50;;;;;;6212979;22;43261;-62
2022/08/10 07:58:44;;;;;;;0.90;0.90;;;22.20;64.50;;;;;;6212922;22;43344;-62
2022/08/10 08:01:26;;;;;;;0.80;0.80;;;22.20;64.50;;;;;;6213190;22;44625;-62
2022/08/10 08:03:55;;;;;;;1.02;1.02;;;22.20;64.50;;;;;;6213544;22;43806;-62
2022/08/10 08:06:40;;;;;;;0.80;0.80;;;22.30;64.50;;;;;;6212888;22;43318;-62
2022/08/10 08:09:09;;;;;;;0.93;0.93;;;22.30;64.60;;;;;;6212936;22;43891;-60
2022/08/10 08:11:42;;;;;;;0.70;0.70;;;22.30;64.70;;;;;;6213179;22;44638;-61
2022/08/10 08:14:13;;;;;;;0.90;0.90;;;22.30;64.60;;;;;;6213240;22;43894;-61
2022/08/10 08:16:48;;;;;;;0.80;0.80;;;22.30;64.80;;;;;;6212756;22;43408;-61
2022/08/10 08:19:17;;;;;;;1.45;1.10;;;22.40;64.70;;;;;;6213172;22;43303;-60
2022/08/10 08:22:02;;;;;;;1.70;1.17;;;22.30;64.90;;;;;;6213386;22;44802;-61
2022/08/10 08:24:51;;;;;;;1.10;1.10;;;22.30;64.80;;;;;;6212031;22;43631;-61
2022/08/10 08:27:19;;;;;;;1.55;1.20;;;22.40;64.90;;;;;;6212644;22;43253;-61
2022/08/10 08:29:49;;;;;;;2.25;1.30;;;22.40;65.00;;;;;;6212215;22;43461;-60
2022/08/10 08:32:23;;;;;;;3.08;1.42;;;22.40;65.20;;;;;;6186174;22;44049;-61
2022/08/10 08:34:56;;;;;;;1.98;1.45;;;22.40;65.30;;;;;;6212857;22;43328;-61
2022/08/10 08:37:26;;;;;;;1.52;1.20;;;22.40;65.30;;;;;;6212600;22;43256;-61
2022/08/10 08:40:26;;;;;;;1.88;1.25;;;22.40;65.40;;;;;;6212962;22;43237;-61
2022/08/10 08:43:31;;;;;;;1.73;1.20;;;22.40;65.10;;;;;;6212743;22;44006;-61
2022/08/10 08:46:27;;;;;;;1.67;1.17;;;22.40;64.90;;;;;;6212423;22;44000;-61
2022/08/10 08:49:30;;;;;;;1.20;1.10;;;22.40;65.40;;;;;;6213087;22;43318;-61
2022/08/10 08:52:34;;;;;;;1.67;1.13;;;22.40;65.50;;;;;;6212563;22;43334;-61
2022/08/10 08:55:18;;;;;;;1.58;1.10;;;22.40;65.40;;;;;;6212719;22;43853;-61
2022/08/10 08:58:41;;;;;;;2.67;1.20;;;22.40;65.50;;;;;;6212169;22;44838;-61
2022/08/10 09:01:08;;;;;;;1.52;1.33;;;22.50;65.40;;;;;;6213004;22;43242;-62
2022/08/10 09:03:46;;;;;;;4.00;1.20;;;22.50;65.40;;;;;;6212811;22;43316;-62
2022/08/10 09:06:53;;;;;;;2.15;1.30;;;22.50;65.30;;;;;;6212095;22;44919;-62
2022/08/10 09:09:37;;;;;;;3.17;1.52;;;22.50;65.20;;;;;;6212582;22;43963;-61
2022/08/10 09:12:22;;;;;;;2.72;1.50;;;22.50;65.20;;;;;;6185418;22;43456;-63
2022/08/10 09:15:10;;;;;;;2.33;1.40;;;22.50;65.10;;;;;;6212803;22;43280;-61
2022/08/10 09:18:09;;;;;;;1.92;1.30;;;22.50;65.40;;;;;;6213157;22;44647;-62
2022/08/10 09:21:04;;;;;;;3.72;1.20;;;22.50;65.40;;;;;;6211946;22;43936;-61
2022/08/10 09:23:49;;;;;;;3.13;1.33;;;22.50;65.40;;;;;;6212733;22;43292;-62
2022/08/10 09:26:51;;;;;;;1.58;1.10;;;22.60;65.50;;;;;;6211749;22;43425;-61
2022/08/10 09:29:43;;;;;;;2.30;1.25;;;22.60;65.80;;;;;;6212263;22;44596;-60
2022/08/10 09:32:24;;;;;;;1.77;1.45;;;22.60;65.60;;;;;;6192047;22;43323;-61
2022/08/10 09:35:37;;;;;;;1.70;1.50;;;22.60;65.70;;;;;;6190676;22;43393;-61
2022/08/10 09:38:51;;;;;;;2.38;1.20;;;22.60;65.60;;;;;;6212531;22;43297;-62
2022/08/10 09:41:40;;;;;;;1.40;1.17;;;22.60;65.70;;;;;;6211970;22;44891;-62
2022/08/10 09:44:26;;;;;;;1.63;1.30;;;22.60;65.70;;;;;;6212203;22;43647;-62
2022/08/10 09:47:09;;;;;;;3.10;1.30;;;22.60;65.50;;;;;;6212793;22;43256;-61
2022/08/10 09:49:58;;;;;;;1.50;1.40;;;22.70;65.50;;;;;;6212734;22;43569;-61
2022/08/10 09:52:50;;;;;;;2.65;1.63;;;22.70;65.50;;;;;;6211992;22;45007;-62
2022/08/10 09:56:00;;;;;;;2.50;1.38;;;22.70;65.50;;;;;;6212271;22;43229;-62
2022/08/10 09:59:14;;;;;;;1.38;1.27;;;22.70;65.50;;;;;;6101301;22;43288;-61
2022/08/10 10:02:26;;;;;;;1.20;1.10;;;22.80;65.50;;;;;;6213449;22;43289;-60
2022/08/10 10:05:11;;;;;;;2.58;1.60;;;22.80;65.40;;;;;;6213874;22;44956;-61
2022/08/10 10:07:44;;;;;;;6.20;2.33;;;22.80;65.50;;;;;;6213620;22;43655;-62
2022/08/10 10:10:19;;;;;;;2.22;2.03;;;22.80;65.70;;;;;;6213156;22;43308;-62
2022/08/10 10:12:56;;;;;;;2.65;2.08;;;22.80;65.50;;;;;;6213592;22;43314;-61
2022/08/10 10:15:23;;;;;;;2.72;2.13;;;22.80;65.50;;;;;;6186405;22;44872;-62
2022/08/10 10:18:17;;;;;;;2.47;1.92;;;22.90;65.50;;;;;;6213264;22;43229;-62
2022/08/10 10:21:00;;;;;;;3.53;2.60;;;22.90;65.40;;;;;;6213545;22;43330;-61
2022/08/10 10:24:00;;;;;;;5.40;2.67;;;22.90;65.50;;;;;;6213354;22;43265;-62
2022/08/10 10:26:58;;;;;;;4.10;2.50;;;22.90;65.50;;;;;;6213612;22;43752;-61
2022/08/10 10:29:39;;;;;;;4.28;3.47;;;22.90;65.50;;;;;;6212621;22;43620;-61
2022/08/10 10:32:39;;;;;;;3.85;2.58;;;23.00;65.70;;;;;;6213397;22;43284;-61
2022/08/10 10:35:22;;;;;;;4.97;2.65;;;23.00;65.60;;;;;;6213600;22;43316;-62
2022/08/10 10:37:52;;;;;;;5.05;3.47;;;23.00;65.50;;;;;;6186060;22;44618;-61
2022/08/10 10:40:52;;;;;;;3.40;2.83;;;23.00;65.50;;;;;;6213091;22;43892;-62
2022/08/10 10:43:38;;;;;;;;;;;23.10;65.60;;;;;;6211239;22;43280;-61
2022/08/10 10:46:44;;;;;;;6.30;4.25;;;23.10;65.60;;;;;;6208353;22;43564;-61
2022/08/10 10:49:27;;;;;;;4.13;3.35;;;23.10;65.40;;;;;;6161572;22;44587;-60
2022/08/10 10:52:22;;;;;;;3.10;2.80;;;23.10;65.30;;;;;;6209554;22;43944;-62
2022/08/10 10:55:04;;;;;;;4.43;2.92;;;23.20;65.30;;;;;;6209860;22;44165;-62
2022/08/10 10:58:10;;;;;;;4.20;3.00;;;23.20;65.30;;;;;;6181937;22;43409;-61
2022/08/10 11:00:48;;;;;;;5.38;3.70;;;23.30;65.10;;;;;;6208924;22;44961;-61
2022/08/10 11:03:15;;;;;;;4.88;3.00;;;23.20;65.30;;;;;;6209867;22;43722;-62
2022/08/10 11:06:05;;;;;;;4.53;2.88;;;23.30;65.30;;;;;;6209338;22;43265;-62
2022/08/10 11:08:43;;;;;;;4.28;2.80;;;23.30;65.30;;;;;;6208977;22;43319;-62
2022/08/10 11:11:24;;;;;;;4.05;3.33;;;23.30;65.10;;;;;;6209131;22;44920;-61
2022/08/10 11:14:15;;;;;;;4.25;3.65;;;23.30;65.10;;;;;;6209709;22;43249;-62
2022/08/10 11:17:19;;;;;;;3.00;2.70;;;23.40;65.00;;;;;;6209560;22;43259;-61
2022/08/10 11:19:59;;;;;;;3.47;2.58;;;23.40;64.80;;;;;;6209132;22;43475;-61
2022/08/10 11:22:55;;;;;;;3.65;2.78;;;23.50;65.00;;;;;;6182111;22;44641;-62
2022/08/10 11:25:29;;;;;;;4.60;2.70;;;23.50;65.00;;;;;;6183219;22;43898;-61
2022/08/10 11:28:16;;;;;;;3.67;2.80;;;23.50;65.00;;;;;;6210047;22;43279;-61
2022/08/10 11:30:57;;;;;;;3.45;2.53;;;23.60;65.00;;;;;;6209218;22;43427;-62
2022/08/10 11:33:36;;;;;;;3.55;2.55;;;23.60;64.90;;;;;;6207401;22;44096;-61
2022/08/10 11:37:07;;;;;;;2.60;2.38;;;23.60;65.10;;;;;;6208467;22;43584;-61
2022/08/10 11:39:58;;;;;;;2.92;2.40;;;23.60;65.00;;;;;;6209039;22;43270;-61
2022/08/10 11:42:48;;;;;;;2.40;2.20;;;23.70;65.10;;;;;;6208977;22;43410;-61
2022/08/10 11:45:19;;;;;;;2.55;2.20;;;23.70;65.00;;;;;;6209633;22;44680;-61
2022/08/10 11:48:01;;;;;;;3.17;2.35;;;23.70;65.00;;;;;;6208770;22;43630;-61
2022/08/10 11:50:35;;;;;;;3.17;2.28;;;23.80;65.10;;;;;;6209202;22;43236;-61
2022/08/10 11:53:18;;;;;;;2.83;2.53;;;23.80;65.00;;;;;;6209248;22;43323;-61
2022/08/10 11:55:53;;;;;;;2.83;2.20;;;23.80;65.00;;;;;;6208890;22;44574;-61
2022/08/10 12:01:14;;;;;;;3.53;2.60;;;23.90;65.00;;;;;;6209005;22;43232;-61
2022/08/10 12:03:43;;;;;;;2.53;2.20;;;23.90;64.70;;;;;;6208710;22;43370;-61
2022/08/10 12:06:15;;;;;;;3.00;2.70;;;23.90;65.50;;;;;;6207998;22;44895;-61
2022/08/10 12:09:04;;;;;;;2.72;2.40;;;24.00;64.90;;;;;;6204719;22;43824;-62
2022/08/10 12:11:53;;;;;;;2.67;2.33;;;24.00;64.90;;;;;;6208088;22;43251;-62
2022/08/10 12:14:30;;;;;;;2.72;2.22;;;24.00;64.80;;;;;;6207609;22;43458;-61
2022/08/10 12:17:04;;;;;;;2.30;2.00;;;24.10;64.90;;;;;;6208034;22;44045;-62
2022/08/10 12:19:48;;;;;;;2.20;2.00;;;24.10;64.90;;;;;;6207151;22;43323;-61
2022/08/10 12:22:36;;;;;;;2.33;2.17;;;24.20;64.90;;;;;;6185105;22;43268;-61
2022/08/10 12:25:13;;;;;;;3.95;2.35;;;24.20;64.90;;;;;;6208605;22;43782;-61
2022/08/10 12:28:09;;;;;;;2.35;2.10;;;24.20;64.90;;;;;;6208543;22;44189;-59
2022/08/10 12:30:49;;;;;;;2.97;2.30;;;24.30;64.80;;;;;;6206878;22;44203;-61
2022/08/10 12:33:24;;;;;;;2.35;2.15;;;24.30;64.80;;;;;;6206986;22;43279;-62
2022/08/10 12:36:09;;;;;;;3.65;2.33;;;24.30;64.80;;;;;;6208291;22;43455;-61
2022/08/10 12:39:11;;;;;;;3.15;2.17;;;24.40;64.70;;;;;;6208628;22;44960;-61
2022/08/10 12:42:04;;;;;;;2.42;2.20;;;24.40;64.80;;;;;;6206761;22;43323;-61
2022/08/10 12:44:42;;;;;;;4.20;2.40;;;24.50;64.80;;;;;;6207585;22;43254;-61
2022/08/10 12:47:34;;;;;;;3.72;2.53;;;24.50;64.80;;;;;;6207979;22;43393;-61
2022/08/10 12:50:35;;;;;;;2.80;2.03;;;24.50;64.80;;;;;;6208392;22;44894;-61
2022/08/10 12:53:17;;;;;;;2.53;2.33;;;24.50;64.60;;;;;;6207362;22;43828;-62
2022/08/10 12:55:49;;;;;;;2.47;2.28;;;24.50;64.70;;;;;;6208800;22;43310;-62
2022/08/10 12:58:19;;;;;;;2.40;2.20;;;24.50;64.70;;;;;;6207683;22;43369;-61
2022/08/10 13:01:08;;;;;;;2.40;2.20;;;24.60;64.70;;;;;;6208283;22;44623;-62
2022/08/10 13:03:46;;;;;;;2.45;2.25;;;24.60;64.60;;;;;;6207767;22;43670;-62
2022/08/10 13:06:40;;;;;;;3.85;2.30;;;24.70;64.70;;;;;;6209075;22;43284;-62
2022/08/10 13:09:08;;;;;;;2.25;2.05;;;24.70;64.60;;;;;;6208810;22;43297;-62
2022/08/10 13:11:39;;;;;;;2.60;2.03;;;24.70;64.60;;;;;;6207228;22;44012;-62
2022/08/10 13:14:46;;;;;;;3.15;2.30;;;24.80;64.50;;;;;;6207155;22;44047;-62
2022/08/10 13:17:20;;;;;;;2.08;1.88;;;24.80;64.50;;;;;;6208527;22;43241;-62
2022/08/10 13:19:51;;;;;;;4.47;2.45;;;24.80;64.50;;;;;;6208672;22;43327;-62
2022/08/10 13:22:26;;;;;;;2.20;2.00;;;24.80;64.50;;;;;;6207286;22;44607;-61
2022/08/10 13:24:57;;;;;;;2.08;1.88;;;24.90;64.40;;;;;;6208062;22;43924;-61
2022/08/10 13:27:29;;;;;;;2.03;1.83;;;24.90;64.50;;;;;;6208687;22;43308;-61
2022/08/10 13:30:18;;;;;;;2.67;2.15;;;24.90;64.40;;;;;;6207596;22;43275;-61
2022/08/10 13:33:04;;;;;;;2.25;1.98;;;24.90;64.40;;;;;;6206718;22;43746;-61
2022/08/10 13:35:34;;;;;;;2.20;2.00;;;25.00;64.40;;;;;;6180570;22;43945;-61
2022/08/10 13:38:05;;;;;;;1.85;1.75;;;25.00;64.40;;;;;;6208860;22;43249;-61
2022/08/10 13:40:34;;;;;;;2.13;1.88;;;25.00;64.30;;;;;;6208089;22;43387;-62
2022/08/10 13:43:06;;;;;;;3.00;2.10;;;25.00;64.40;;;;;;6205246;22;44888;-62
2022/08/10 13:45:41;;;;;;;2.38;2.17;;;25.10;64.40;;;;;;6207989;22;43218;-62
2022/08/10 13:48:21;;;;;;;2.85;2.10;;;25.10;64.40;;;;;;6207377;22;43269;-61
2022/08/10 13:50:55;;;;;;;2.60;1.95;;;25.10;64.40;;;;;;6208105;22;43396;-62
2022/08/10 13:53:29;;;;;;;2.63;2.05;;;25.10;64.50;;;;;;6206898;22;44921;-62
2022/08/10 13:55:59;;;;;;;2.55;1.80;;;25.20;64.50;;;;;;6208115;22;43662;-62